Terminal Aerodrome Forecast
Issued by NWS

Home | Current Version | Previous Version | Graphics & Text | Print | Product List | Glossary On
Versions: 1 2 3 4 5 6 7 8 9 10 11 12 13 14 15 16 17 18
000
FTUS43 KMPX 031729
TAFRNH
TAF
KRNH 031729Z 0318/0418 20008KT P6SM BKN150
     FM031930 25009KT P6SM VCTS BKN050CB
     FM032200 35010KT P6SM VCTS BKN050CB
      TEMPO 0322/0324 3SM TSRA BKN035CB
     FM040100 35010KT P6SM VCSH SCT050
     FM040700 35008KT P6SM BKN250
     FM041300 01010KT P6SM BKN250=

USA.gov is the U.S. government's official web portal to all federal, state and local government web resources and services.